createdAt,value
2022-08-17T00:00:34.379Z,73.39
2022-08-17T00:03:09.995Z,74.15
2022-08-17T00:05:43.827Z,73.91
2022-08-17T00:08:16.892Z,73.88
2022-08-17T00:10:46.377Z,73.39
2022-08-17T00:13:17.410Z,73.36
2022-08-17T00:15:45.853Z,72.32
2022-08-17T00:19:05.690Z,72.26
2022-08-17T00:21:10.468Z,72.80
2022-08-17T00:23:39.389Z,73.91
2022-08-17T00:26:14.631Z,75.05
2022-08-17T00:29:02.757Z,75.39
2022-08-17T00:31:31.772Z,74.54
2022-08-17T00:34:01.058Z,73.92
2022-08-17T00:36:29.669Z,73.44
2022-08-17T00:38:57.690Z,73.59
2022-08-17T00:41:28.071Z,72.95
2022-08-17T00:43:58.465Z,72.89
2022-08-17T00:46:29.592Z,72.42
2022-08-17T00:48:58.006Z,72.13
2022-08-17T00:51:33.437Z,72.03
2022-08-17T00:54:05.711Z,72.93
2022-08-17T00:56:37.435Z,73.44
2022-08-17T00:59:07.613Z,73.35
2022-08-17T01:01:36.126Z,73.19
2022-08-17T01:04:05.095Z,73.28
2022-08-17T01:06:34.830Z,73.06
2022-08-17T01:09:04.711Z,72.84
2022-08-17T01:11:36.514Z,73.41
2022-08-17T01:14:04.836Z,73.72
2022-08-17T01:16:33.675Z,73.92
2022-08-17T01:19:06.034Z,74.56
2022-08-17T01:21:42.620Z,73.15
2022-08-17T01:24:12.534Z,71.08
2022-08-17T01:26:41.976Z,72.12
2022-08-17T01:29:10.599Z,72.59
2022-08-17T01:31:41.510Z,72.67
2022-08-17T01:34:12.231Z,72.51
2022-08-17T01:36:42.798Z,72.98
2022-08-17T01:39:18.862Z,73.61
2022-08-17T01:41:52.486Z,73.75
2022-08-17T01:44:21.735Z,74.35
2022-08-17T01:46:49.983Z,74.93
2022-08-17T01:49:20.310Z,74.60
2022-08-17T01:51:48.500Z,74.45
2022-08-17T01:54:19.889Z,74.65
2022-08-17T01:56:50.777Z,74.83
2022-08-17T01:59:20.734Z,75.18
2022-08-17T02:01:48.958Z,76.08
2022-08-17T02:04:17.097Z,75.88
2022-08-17T02:06:53.400Z,75.55
2022-08-17T02:09:26.187Z,75.21
2022-08-17T02:11:58.991Z,75.45
2022-08-17T02:14:27.377Z,75.61
2022-08-17T02:16:56.072Z,75.23
2022-08-17T02:19:24.378Z,74.77
2022-08-17T02:21:54.774Z,74.42
2022-08-17T02:25:01.218Z,73.57
2022-08-17T02:27:16.576Z,73.91
2022-08-17T02:29:44.502Z,73.85
2022-08-17T02:32:25.418Z,73.75
2022-08-17T02:34:55.931Z,74.04
2022-08-17T02:37:23.845Z,73.75
2022-08-17T02:39:53.677Z,73.47
2022-08-17T02:42:25.995Z,73.81
2022-08-17T02:44:53.936Z,74.44
2022-08-17T02:47:21.857Z,74.24
2022-08-17T02:49:55.628Z,74.64
2022-08-17T02:52:42.907Z,74.26
2022-08-17T02:55:15.663Z,74.78
2022-08-17T02:57:43.867Z,75.03
2022-08-17T03:00:15.981Z,75.27
2022-08-17T03:02:45.084Z,74.54
2022-08-17T03:05:17.588Z,74.64
2022-08-17T03:07:45.513Z,74.91
2022-08-17T03:10:17.272Z,75.15
2022-08-17T03:12:46.878Z,74.50
2022-08-17T03:15:17.477Z,74.05
2022-08-17T03:17:46.288Z,74.73
2022-08-17T03:20:16.074Z,74.39
2022-08-17T03:22:48.096Z,74.73
2022-08-17T03:25:25.911Z,74.66
2022-08-17T03:27:55.104Z,74.66
2022-08-17T03:30:24.021Z,73.97
2022-08-17T03:32:54.759Z,73.25
2022-08-17T03:35:25.256Z,72.79
2022-08-17T03:38:00.733Z,72.43
2022-08-17T03:40:39.894Z,72.95
2022-08-17T03:43:21.708Z,72.94
2022-08-17T03:46:11.012Z,72.59
2022-08-17T03:49:12.830Z,72.38
2022-08-17T03:51:58.195Z,72.32
2022-08-17T03:54:43.670Z,73.11
2022-08-17T03:57:13.582Z,73.25
2022-08-17T03:59:42.359Z,72.48
2022-08-17T04:02:14.494Z,72.45
2022-08-17T04:04:42.710Z,71.59
2022-08-17T04:07:11.378Z,72.05
2022-08-17T04:09:39.336Z,71.20
2022-08-17T04:12:07.530Z,71.58
2022-08-17T04:14:51.785Z,71.93
2022-08-17T04:17:24.114Z,72.23
2022-08-17T04:19:52.932Z,71.26
2022-08-17T04:22:31.318Z,71.51
2022-08-17T04:25:05.218Z,71.84
2022-08-17T04:27:33.271Z,72.19
2022-08-17T04:30:02.915Z,72.12
2022-08-17T04:33:05.366Z,71.81
2022-08-17T04:35:22.136Z,71.52
2022-08-17T04:37:50.080Z,70.60
2022-08-17T04:40:36.238Z,71.29
2022-08-17T04:43:05.768Z,71.85
2022-08-17T04:45:35.541Z,71.79
2022-08-17T04:48:04.270Z,71.73
2022-08-17T04:50:32.746Z,71.38
2022-08-17T04:53:01.319Z,71.18
2022-08-17T04:55:29.818Z,71.52
2022-08-17T04:57:58.052Z,70.63
2022-08-17T05:00:27.033Z,70.48
2022-08-17T05:02:57.370Z,71.68
2022-08-17T05:05:28.112Z,70.93
2022-08-17T05:07:58.917Z,70.31
2022-08-17T05:10:30.886Z,70.08
2022-08-17T05:13:00.556Z,70.69
2022-08-17T05:15:29.619Z,70.38
2022-08-17T05:18:02.994Z,69.40
2022-08-17T05:20:31.856Z,69.55
2022-08-17T05:23:04.590Z,69.66
2022-08-17T05:25:38.075Z,69.73
2022-08-17T05:28:07.475Z,70.38
2022-08-17T05:30:37.209Z,70.73
2022-08-17T05:33:08.756Z,70.53
2022-08-17T05:35:39.916Z,70.41
2022-08-17T05:38:08.635Z,70.14
2022-08-17T05:40:37.608Z,69.49
2022-08-17T05:43:08.136Z,69.52
2022-08-17T05:45:54.678Z,69.09
2022-08-17T05:48:39.447Z,67.99
2022-08-17T05:51:28.763Z,68.68
2022-08-17T05:54:11.475Z,68.75
2022-08-17T05:56:56.203Z,68.90
2022-08-17T05:59:34.389Z,68.68
2022-08-17T06:02:11.044Z,67.71
2022-08-17T06:04:55.365Z,68.15
2022-08-17T06:07:32.627Z,68.39
2022-08-17T06:10:07.358Z,68.85
2022-08-17T06:12:54.106Z,68.13
2022-08-17T06:15:33.690Z,69.68
2022-08-17T06:18:06.979Z,69.82
2022-08-17T06:20:47.859Z,69.34
2022-08-17T06:23:22.829Z,69.59
2022-08-17T06:25:54.686Z,69.20
2022-08-17T06:28:30.052Z,68.60
2022-08-17T06:31:03.194Z,68.99
2022-08-17T06:33:36.534Z,69.13
2022-08-17T06:36:17.501Z,69.18
2022-08-17T06:38:58.330Z,69.46
2022-08-17T06:41:37.988Z,69.51
2022-08-17T06:44:49.783Z,69.85
2022-08-17T06:47:28.609Z,70.23
2022-08-17T06:50:07.094Z,70.64
2022-08-17T06:52:46.860Z,70.52
2022-08-17T06:55:21.190Z,70.37
2022-08-17T06:57:54.208Z,69.75
2022-08-17T07:00:24.945Z,69.92
2022-08-17T07:02:56.810Z,70.20
2022-08-17T07:05:28.581Z,70.30
2022-08-17T07:08:02.724Z,71.39
2022-08-17T07:10:37.656Z,73.34
2022-08-17T07:13:23.469Z,79.24
2022-08-17T07:15:57.183Z,79.09
2022-08-17T07:18:33.064Z,79.75
2022-08-17T07:21:17.588Z,78.05
2022-08-17T07:24:01.867Z,76.67
2022-08-17T07:26:30.112Z,76.59
2022-08-17T07:29:00.651Z,75.78
2022-08-17T07:31:33.516Z,75.79
2022-08-17T07:34:14.608Z,75.16
2022-08-17T07:36:42.665Z,75.52
2022-08-17T07:39:12.126Z,75.57
2022-08-17T07:41:53.194Z,76.56
2022-08-17T07:44:27.621Z,76.37
2022-08-17T07:47:28.799Z,75.82
2022-08-17T07:49:56.780Z,75.83
2022-08-17T07:52:50.875Z,77.22
2022-08-17T07:55:32.799Z,78.12
2022-08-17T07:58:01.826Z,78.25
2022-08-17T08:00:32.519Z,80.05
2022-08-17T08:03:18.289Z,80.79
2022-08-17T08:05:57.387Z,80.56
2022-08-17T08:08:29.920Z,81.26
2022-08-17T08:11:10.262Z,83.37
2022-08-17T08:13:43.902Z,86.75
2022-08-17T08:16:29.409Z,84.40
2022-08-17T08:19:00.022Z,86.59
2022-08-17T08:21:47.305Z,87.14
2022-08-17T08:24:40.922Z,89.33
2022-08-17T08:27:27.095Z,88.27
2022-08-17T08:30:02.952Z,94.77
2022-08-17T08:32:50.319Z,94.51
2022-08-17T08:35:30.946Z,91.27
2022-08-17T08:38:09.615Z,88.27
2022-08-17T08:41:02.431Z,86.63
2022-08-17T08:43:41.550Z,88.04
2022-08-17T08:46:22.666Z,91.23
2022-08-17T08:49:58.993Z,92.11
2022-08-17T08:52:32.371Z,87.67
2022-08-17T08:55:10.232Z,85.07
2022-08-17T08:57:45.105Z,82.88
2022-08-17T09:00:19.037Z,81.36
2022-08-17T09:03:17.023Z,79.34
2022-08-17T09:06:03.054Z,76.61
2022-08-17T09:08:42.610Z,74.93
2022-08-17T09:11:18.322Z,74.28
2022-08-17T09:13:58.246Z,73.12
2022-08-17T09:16:33.173Z,72.90
2022-08-17T09:19:06.918Z,72.20
2022-08-17T09:21:47.702Z,72.81
2022-08-17T09:24:22.806Z,72.03
2022-08-17T09:26:58.835Z,70.06
2022-08-17T09:29:30.537Z,69.31
2022-08-17T09:32:03.724Z,67.81
2022-08-17T09:34:36.176Z,68.91
2022-08-17T09:37:17.071Z,68.60
2022-08-17T09:39:54.026Z,68.00
2022-08-17T09:42:29.162Z,68.21
2022-08-17T09:45:08.211Z,64.91
2022-08-17T09:47:46.697Z,61.84
2022-08-17T09:50:20.145Z,61.54
2022-08-17T09:53:09.177Z,64.00
2022-08-17T09:55:49.095Z,62.93
2022-08-17T09:58:25.661Z,63.51
2022-08-17T10:01:04.554Z,63.89
2022-08-17T10:03:59.400Z,64.95
2022-08-17T10:06:33.569Z,65.09
2022-08-17T10:09:08.995Z,65.43
2022-08-17T10:12:04.617Z,65.86
2022-08-17T10:14:43.876Z,68.26
2022-08-17T10:17:22.525Z,68.45
2022-08-17T10:20:00.418Z,68.62
2022-08-17T10:22:54.928Z,69.16
2022-08-17T10:25:54.597Z,69.51
2022-08-17T10:28:29.858Z,68.85
2022-08-17T10:31:30.968Z,68.49
2022-08-17T10:34:01.220Z,68.11
2022-08-17T10:36:43.191Z,67.29
2022-08-17T10:39:21.185Z,66.85
2022-08-17T10:41:53.976Z,66.50
2022-08-17T10:44:39.012Z,66.19
2022-08-17T10:47:11.618Z,65.61
2022-08-17T10:49:47.810Z,65.28
2022-08-17T10:52:52.325Z,64.94
2022-08-17T10:55:21.411Z,64.65
2022-08-17T10:57:55.045Z,63.95
2022-08-17T11:00:57.764Z,61.59
2022-08-17T11:03:27.601Z,58.09
2022-08-17T11:06:12.557Z,54.55
2022-08-17T11:09:16.513Z,53.88
2022-08-17T11:12:06.752Z,50.93
2022-08-17T11:14:50.165Z,49.52
2022-08-17T11:17:45.513Z,49.87
2022-08-17T11:20:46.676Z,51.69
2022-08-17T11:23:50.222Z,50.40
2022-08-17T11:26:27.104Z,51.00
2022-08-17T11:29:01.416Z,50.84
2022-08-17T11:31:38.396Z,51.00
2022-08-17T11:34:17.081Z,49.39
2022-08-17T11:37:22.027Z,52.14
2022-08-17T11:40:16.071Z,52.29
2022-08-17T11:43:00.676Z,52.54
2022-08-17T11:45:50.986Z,47.32
2022-08-17T11:48:44.781Z,45.27
2022-08-17T11:51:34.727Z,46.81
2022-08-17T11:57:00.019Z,52.57
2022-08-17T12:00:00.027Z,52.90
2022-08-17T12:02:35.555Z,52.87
2022-08-17T12:05:26.042Z,53.90
2022-08-17T12:08:11.759Z,54.80
2022-08-17T12:10:57.383Z,54.88
2022-08-17T12:13:39.368Z,55.14
2022-08-17T12:16:15.209Z,54.72
2022-08-17T12:18:51.630Z,54.22
2022-08-17T12:21:38.674Z,54.22
2022-08-17T12:24:15.681Z,52.28
2022-08-17T12:26:45.256Z,51.52
2022-08-17T12:29:35.824Z,50.99
2022-08-17T12:32:17.810Z,50.93
2022-08-17T12:34:47.828Z,50.84
2022-08-17T12:37:22.794Z,50.63
2022-08-17T12:39:54.657Z,51.84
2022-08-17T12:42:26.773Z,52.41
2022-08-17T12:44:54.947Z,53.06
2022-08-17T12:47:29.561Z,53.46
2022-08-17T12:50:08.471Z,54.08
2022-08-17T12:53:02.219Z,54.62
2022-08-17T12:55:38.874Z,54.27
2022-08-17T12:58:12.238Z,53.84
2022-08-17T13:00:51.125Z,53.17
2022-08-17T13:03:24.463Z,52.73
2022-08-17T13:05:58.986Z,50.01
2022-08-17T13:08:35.875Z,47.80
2022-08-17T13:11:09.386Z,46.31
2022-08-17T13:13:43.776Z,47.74
2022-08-17T13:16:19.098Z,47.81
2022-08-17T13:18:51.936Z,49.37
2022-08-17T13:21:27.754Z,48.93
2022-08-17T13:24:03.577Z,48.32
2022-08-17T13:26:37.974Z,47.34
2022-08-17T13:29:08.128Z,46.35
2022-08-17T13:31:42.876Z,45.89
2022-08-17T13:35:01.675Z,45.11
2022-08-17T13:37:36.333Z,44.01
2022-08-17T13:40:29.692Z,43.38
2022-08-17T13:42:58.559Z,42.83
2022-08-17T13:45:52.923Z,42.87
2022-08-17T13:48:25.826Z,43.91
2022-08-17T13:51:20.894Z,43.37
2022-08-17T13:54:15.044Z,40.82
2022-08-17T13:57:04.236Z,41.93
2022-08-17T13:59:53.004Z,41.71
2022-08-17T14:02:25.988Z,42.19
2022-08-17T14:05:02.039Z,42.47
2022-08-17T14:07:45.763Z,42.71
2022-08-17T14:10:17.434Z,40.89
2022-08-17T14:12:46.622Z,40.06
2022-08-17T14:15:17.877Z,40.97
2022-08-17T14:17:52.275Z,40.95
2022-08-17T14:20:22.515Z,41.45
2022-08-17T14:22:55.686Z,42.09
2022-08-17T14:25:26.342Z,41.80
2022-08-17T14:27:55.716Z,41.22
2022-08-17T14:30:26.013Z,41.75
2022-08-17T14:32:56.615Z,42.64
2022-08-17T14:35:27.392Z,42.17
2022-08-17T14:37:58.729Z,42.71
2022-08-17T14:40:28.024Z,43.30
2022-08-17T14:42:57.791Z,43.80
2022-08-17T14:45:32.553Z,45.55
2022-08-17T14:48:05.651Z,45.25
2022-08-17T14:50:35.827Z,45.47
2022-08-17T14:53:08.002Z,45.20
2022-08-17T14:55:39.668Z,45.35
2022-08-17T14:58:08.821Z,45.73
2022-08-17T15:00:37.607Z,45.33
2022-08-17T15:03:06.030Z,45.23
2022-08-17T15:05:36.651Z,45.40
2022-08-17T15:08:07.110Z,44.82
2022-08-17T15:10:35.892Z,44.83
2022-08-17T15:13:05.052Z,43.36
2022-08-17T15:15:34.136Z,43.90
2022-08-17T15:18:02.600Z,44.51
2022-08-17T15:20:31.525Z,44.12
2022-08-17T15:23:00.275Z,43.86
2022-08-17T15:25:32.163Z,44.42
2022-08-17T15:28:01.614Z,44.56
2022-08-17T15:30:30.967Z,43.81
2022-08-17T15:33:00.521Z,42.66
2022-08-17T15:35:31.423Z,42.73
2022-08-17T15:38:04.571Z,43.98
2022-08-17T15:40:40.438Z,43.58
2022-08-17T15:43:11.219Z,42.85
2022-08-17T15:45:40.318Z,42.64
2022-08-17T15:48:09.146Z,42.14
2022-08-17T15:50:37.334Z,42.07
2022-08-17T15:53:05.538Z,41.36
2022-08-17T15:55:34.946Z,41.87
2022-08-17T15:58:04.558Z,41.39
2022-08-17T16:00:39.793Z,41.95
2022-08-17T16:03:45.087Z,43.57
2022-08-17T16:06:09.767Z,44.37
2022-08-17T16:08:41.586Z,44.53
2022-08-17T16:11:10.993Z,44.33
2022-08-17T16:13:41.560Z,44.33
2022-08-17T16:16:10.770Z,45.25
2022-08-17T16:18:39.775Z,44.57
2022-08-17T16:21:42.399Z,44.56
2022-08-17T16:24:13.736Z,45.53
2022-08-17T16:26:43.578Z,44.91
2022-08-17T16:29:12.762Z,45.26
2022-08-17T16:31:41.759Z,45.35
2022-08-17T16:34:18.024Z,45.87
2022-08-17T16:36:55.198Z,46.34
2022-08-17T16:39:24.040Z,46.61
2022-08-17T16:41:52.025Z,46.59
2022-08-17T16:44:22.740Z,46.35
2022-08-17T16:46:51.238Z,46.74
2022-08-17T16:49:35.706Z,46.90
2022-08-17T16:52:09.821Z,47.53
2022-08-17T16:54:40.546Z,47.75
2022-08-17T16:57:08.802Z,47.41
2022-08-17T16:59:40.769Z,47.74
2022-08-17T17:02:15.675Z,47.74
2022-08-17T17:04:52.950Z,47.65
2022-08-17T17:07:39.151Z,47.45
2022-08-17T17:10:11.518Z,47.13
2022-08-17T17:13:01.041Z,47.44
2022-08-17T17:15:41.440Z,47.31
2022-08-17T17:18:13.938Z,47.33
2022-08-17T17:20:48.585Z,46.96
2022-08-17T17:23:29.207Z,46.37
2022-08-17T17:26:08.142Z,46.14
2022-08-17T17:28:46.231Z,46.62
2022-08-17T17:31:17.986Z,45.95
2022-08-17T17:33:48.829Z,46.04
2022-08-17T17:36:27.515Z,46.53
2022-08-17T17:39:00.227Z,47.41
2022-08-17T17:41:34.185Z,47.56
2022-08-17T17:44:07.473Z,48.23
2022-08-17T17:46:40.750Z,48.77
2022-08-17T17:49:10.658Z,48.10
2022-08-17T17:52:09.555Z,48.27
2022-08-17T17:54:51.094Z,48.97
2022-08-17T17:57:26.746Z,49.05
2022-08-17T18:00:03.772Z,49.56
2022-08-17T18:02:57.319Z,49.11
2022-08-17T18:05:49.920Z,50.44
2022-08-17T18:08:32.175Z,51.13
2022-08-17T18:11:14.125Z,50.17
2022-08-17T18:13:56.300Z,50.66
2022-08-17T18:16:24.921Z,51.73
2022-08-17T18:18:58.677Z,52.03
2022-08-17T18:21:39.276Z,53.38
2022-08-17T18:24:10.604Z,52.68
2022-08-17T18:26:44.913Z,53.05
2022-08-17T18:29:32.389Z,52.53
2022-08-17T18:32:23.798Z,52.62
2022-08-17T18:34:56.527Z,53.19
2022-08-17T18:37:44.995Z,53.74
2022-08-17T18:40:36.218Z,53.33
2022-08-17T18:43:24.221Z,53.49
2022-08-17T18:45:54.466Z,54.21
2022-08-17T18:48:27.487Z,54.85
2022-08-17T18:50:59.700Z,55.00
2022-08-17T18:53:37.426Z,54.85
2022-08-17T18:56:33.227Z,55.38
2022-08-17T18:59:11.220Z,54.82
2022-08-17T19:01:52.526Z,55.08
2022-08-17T19:04:35.061Z,55.57
2022-08-17T19:07:25.632Z,55.66
2022-08-17T19:09:58.296Z,56.14
2022-08-17T19:12:31.056Z,56.28
2022-08-17T19:15:01.008Z,56.42
2022-08-17T19:17:37.571Z,56.27
2022-08-17T19:20:13.936Z,55.73
2022-08-17T19:22:55.043Z,56.18
2022-08-17T19:25:27.398Z,55.94
2022-08-17T19:28:00.161Z,55.99
2022-08-17T19:30:28.927Z,56.25
2022-08-17T19:32:58.435Z,56.76
2022-08-17T19:35:34.360Z,57.05
2022-08-17T19:38:12.764Z,57.52
2022-08-17T19:41:04.724Z,57.56
2022-08-17T19:43:55.347Z,57.82
2022-08-17T19:46:30.787Z,57.88
2022-08-17T19:49:11.133Z,58.08
2022-08-17T19:51:48.125Z,58.60
2022-08-17T19:54:26.431Z,59.20
2022-08-17T19:57:01.752Z,59.07
2022-08-17T19:59:48.918Z,60.00
2022-08-17T20:02:37.481Z,60.16
2022-08-17T20:05:13.756Z,60.59
2022-08-17T20:07:48.758Z,60.73
2022-08-17T20:10:31.555Z,60.27
2022-08-17T20:13:06.318Z,59.98
2022-08-17T20:15:37.801Z,60.02
2022-08-17T20:18:17.418Z,60.07
2022-08-17T20:20:54.908Z,60.08
2022-08-17T20:23:45.131Z,60.16
2022-08-17T20:26:22.521Z,60.06
2022-08-17T20:29:09.995Z,60.04
2022-08-17T20:31:45.741Z,60.42
2022-08-17T20:34:36.945Z,60.08
2022-08-17T20:37:08.609Z,60.17
2022-08-17T20:39:40.677Z,60.36
2022-08-17T20:42:29.534Z,60.61
2022-08-17T20:45:02.374Z,60.63
2022-08-17T20:47:34.829Z,60.87
2022-08-17T20:50:06.885Z,60.63
2022-08-17T20:52:53.312Z,60.60
2022-08-17T20:55:53.294Z,60.78
2022-08-17T20:58:48.560Z,60.98
2022-08-17T21:01:24.423Z,60.77
2022-08-17T21:03:56.363Z,60.86
2022-08-17T21:06:26.003Z,60.99
2022-08-17T21:08:58.630Z,61.03
2022-08-17T21:12:04.273Z,61.40
2022-08-17T21:14:51.995Z,61.46
2022-08-17T21:17:41.854Z,61.64
2022-08-17T21:20:26.998Z,61.61
2022-08-17T21:23:27.841Z,61.21
2022-08-17T21:26:11.115Z,59.91
2022-08-17T21:29:00.379Z,59.85
2022-08-17T21:31:37.964Z,59.06
2022-08-17T21:34:30.614Z,58.94
2022-08-17T21:37:28.518Z,58.60
2022-08-17T21:40:00.034Z,58.25
2022-08-17T21:42:31.620Z,58.52
2022-08-17T21:45:09.147Z,58.73
2022-08-17T21:47:48.690Z,58.94
2022-08-17T21:50:21.165Z,58.93
2022-08-17T21:52:51.520Z,59.21
2022-08-17T21:55:28.055Z,59.46
2022-08-17T21:58:14.958Z,59.57
2022-08-17T22:00:45.101Z,59.48
2022-08-17T22:03:25.852Z,59.58
2022-08-17T22:05:53.819Z,59.96
2022-08-17T22:08:24.242Z,60.45
2022-08-17T22:11:01.532Z,60.75
2022-08-17T22:13:30.151Z,61.72
2022-08-17T22:16:15.343Z,61.58
2022-08-17T22:18:59.651Z,62.23
2022-08-17T22:21:28.144Z,62.40
2022-08-17T22:24:07.434Z,63.25
2022-08-17T22:27:03.702Z,63.84
2022-08-17T22:29:57.378Z,64.30
2022-08-17T22:32:38.548Z,65.20
2022-08-17T22:35:38.813Z,65.09
2022-08-17T22:38:26.377Z,65.37
2022-08-17T22:40:58.529Z,65.31
2022-08-17T22:43:28.957Z,65.98
2022-08-17T22:46:00.946Z,66.76
2022-08-17T22:48:31.180Z,67.11
2022-08-17T22:51:12.866Z,66.85
2022-08-17T22:54:10.686Z,66.56
2022-08-17T22:56:56.760Z,66.71
2022-08-17T22:59:43.593Z,67.82
2022-08-17T23:02:15.451Z,68.79
2022-08-17T23:04:47.762Z,69.08
2022-08-17T23:07:17.473Z,69.25
2022-08-17T23:09:45.798Z,68.85
2022-08-17T23:12:23.563Z,68.24
2022-08-17T23:14:58.405Z,67.82
2022-08-17T23:17:27.504Z,67.10
2022-08-17T23:19:57.094Z,66.84
2022-08-17T23:22:26.394Z,66.43
2022-08-17T23:24:54.583Z,66.42
2022-08-17T23:27:23.183Z,67.01
2022-08-17T23:29:51.431Z,66.96
2022-08-17T23:32:19.740Z,66.69
2022-08-17T23:34:49.414Z,66.05
2022-08-17T23:37:19.367Z,66.73
2022-08-17T23:39:48.761Z,67.08
2022-08-17T23:42:21.708Z,67.45
2022-08-17T23:44:50.531Z,67.68
2022-08-17T23:47:18.489Z,68.10
2022-08-17T23:49:46.393Z,67.96
2022-08-17T23:52:16.602Z,67.36
2022-08-17T23:54:48.316Z,67.45
2022-08-17T23:57:19.138Z,67.38
2022-08-17T23:59:48.882Z,67.69
